Terminal Aerodrome Forecast
Issued by NWS

Home | Current Version | Previous Version | Text Only | Print | Product List | Glossary On
Versions: 1 2 3 4 5 6 7 8 9 10 11 12 13 14 15 16 17 18 19 20 21 22 23 24 25 26 27 28 29 30 31 32 33 34 35 36 37 38 39 40 41 42 43 44 45 46 47 48 49 50
000
FTUS44 KHGX 211126
TAFIAH
TAF
KIAH 211126Z 2112/2218 09008KT P6SM SCT008 BKN015
     FM211500 13011G19KT P6SM BKN025 OVC035
     FM212100 13009G18KT P6SM VCSH BKN035
     FM220300 20008KT P6SM VCTS BKN025CB PROB30 2207/2210 TSRA
      BKN015CB
     FM221000 30006KT P6SM BKN020
     FM221600 32012KT P6SM BKN035=

USA.gov is the U.S. government's official web portal to all federal, state and local government web resources and services.